createdAt,value
2023-04-18T00:00:44.595Z,98.23
2023-04-18T00:01:44.704Z,98.33
2023-04-18T00:02:44.648Z,98.33
2023-04-18T00:03:44.701Z,98.13
2023-04-18T00:04:44.628Z,98.23
2023-04-18T00:05:44.499Z,98.02
2023-04-18T00:06:44.499Z,98.54
2023-04-18T00:07:44.502Z,98.44
2023-04-18T00:08:44.509Z,98.33
2023-04-18T00:09:44.726Z,98.44
2023-04-18T00:10:44.477Z,98.54
2023-04-18T00:11:44.438Z,98.54
2023-04-18T00:12:44.453Z,98.65
2023-04-18T00:13:44.434Z,98.65
2023-04-18T00:14:44.420Z,98.65
2023-04-18T00:15:44.413Z,98.44
2023-04-18T00:16:44.495Z,98.33
2023-04-18T00:17:44.390Z,97.86
2023-04-18T00:18:44.346Z,97.97
2023-04-18T00:19:44.333Z,98.28
2023-04-18T00:20:44.328Z,97.97
2023-04-18T00:21:44.328Z,97.97
2023-04-18T00:22:44.310Z,97.86
2023-04-18T00:23:44.307Z,97.97
2023-04-18T00:24:44.300Z,97.97
2023-04-18T00:25:44.282Z,98.07
2023-04-18T00:26:44.263Z,98.28
2023-04-18T00:27:44.255Z,98.28
2023-04-18T00:28:44.386Z,98.38
2023-04-18T00:29:44.229Z,98.07
2023-04-18T00:30:44.255Z,97.97
2023-04-18T00:31:44.195Z,98.07
2023-04-18T00:32:44.227Z,98.38
2023-04-18T00:33:44.218Z,98.28
2023-04-18T00:34:44.188Z,98.07
2023-04-18T00:35:44.133Z,98.18
2023-04-18T00:36:44.179Z,98.28
2023-04-18T00:37:44.136Z,98.38
2023-04-18T00:38:44.133Z,98.38
2023-04-18T00:39:44.119Z,98.07
2023-04-18T00:40:44.090Z,98.18
2023-04-18T00:41:44.088Z,97.86
2023-04-18T00:42:44.109Z,98.07
2023-04-18T00:43:44.066Z,98.28
2023-04-18T00:44:44.058Z,98.58
2023-04-18T00:45:44.059Z,98.49
2023-04-18T00:46:44.001Z,98.38
2023-04-18T00:47:44.038Z,98.79
2023-04-18T00:48:44.016Z,98.69
2023-04-18T00:49:44.047Z,98.58
2023-04-18T00:50:43.995Z,98.58
2023-04-18T00:51:43.962Z,98.38
2023-04-18T00:52:43.950Z,98.32
2023-04-18T00:53:43.907Z,98.07
2023-04-18T00:54:43.920Z,98.07
2023-04-18T00:55:43.878Z,98.22
2023-04-18T00:56:43.884Z,98.38
2023-04-18T00:57:43.863Z,98.58
2023-04-18T00:58:44.892Z,98.69
2023-04-18T00:59:43.865Z,98.49
2023-04-18T01:00:43.867Z,98.69
2023-04-18T01:01:43.854Z,98.49
2023-04-18T01:02:43.929Z,98.58
2023-04-18T01:03:43.935Z,98.49
2023-04-18T01:04:43.871Z,98.69
2023-04-18T01:05:43.759Z,98.69
2023-04-18T01:06:43.829Z,98.28
2023-04-18T01:07:43.735Z,98.58
2023-04-18T01:08:43.738Z,98.28
2023-04-18T01:09:43.742Z,98.07
2023-04-18T01:10:43.707Z,97.76
2023-04-18T01:11:43.699Z,98.07
2023-04-18T01:12:43.698Z,97.97
2023-04-18T01:13:43.695Z,98.07
2023-04-18T01:14:43.658Z,98.18
2023-04-18T01:15:43.764Z,97.86
2023-04-18T01:16:43.638Z,97.97
2023-04-18T01:17:43.687Z,97.25
2023-04-18T01:18:43.603Z,97.66
2023-04-18T01:19:43.619Z,98.07
2023-04-18T01:20:43.595Z,98.18
2023-04-18T01:21:43.823Z,98.58
2023-04-18T01:22:43.571Z,98.58
2023-04-18T01:23:43.554Z,98.69
2023-04-18T01:24:43.711Z,98.53
2023-04-18T01:25:43.525Z,98.43
2023-04-18T01:26:43.625Z,98.43
2023-04-18T01:27:43.500Z,98.43
2023-04-18T01:28:43.485Z,98.63
2023-04-18T01:29:43.468Z,98.22
2023-04-18T01:30:43.475Z,98.01
2023-04-18T01:31:43.570Z,98.32
2023-04-18T01:32:43.453Z,98.43
2023-04-18T01:33:43.470Z,98.53
2023-04-18T01:34:43.420Z,98.63
2023-04-18T01:35:43.387Z,98.84
2023-04-18T01:36:43.405Z,99.05
2023-04-18T01:37:43.379Z,98.53
2023-04-18T01:38:43.416Z,98.63
2023-04-18T01:39:43.362Z,98.74
2023-04-18T01:40:43.357Z,98.74
2023-04-18T01:41:43.322Z,98.63
2023-04-18T01:42:43.339Z,98.74
2023-04-18T01:43:43.313Z,98.57
2023-04-18T01:44:43.311Z,98.37
2023-04-18T01:45:43.301Z,98.27
2023-04-18T01:46:43.305Z,98.37
2023-04-18T01:47:43.348Z,98.27
2023-04-18T01:48:43.266Z,98.47
2023-04-18T01:49:43.243Z,98.68
2023-04-18T01:50:43.236Z,98.47
2023-04-18T01:51:43.202Z,98.57
2023-04-18T01:52:43.194Z,98.68
2023-04-18T01:53:43.178Z,98.99
2023-04-18T01:54:43.229Z,98.88
2023-04-18T01:55:43.152Z,98.68
2023-04-18T01:56:43.145Z,98.68
2023-04-18T01:57:43.179Z,98.57
2023-04-18T01:58:43.221Z,98.37
2023-04-18T01:59:43.096Z,98.47
2023-04-18T02:00:43.177Z,98.68
2023-04-18T02:01:43.296Z,98.37
2023-04-18T02:02:43.285Z,98.27
2023-04-18T02:03:43.333Z,98.27
2023-04-18T02:04:43.032Z,98.27
2023-04-18T02:05:43.006Z,98.47
2023-04-18T02:06:43.017Z,98.37
2023-04-18T02:07:43.005Z,98.37
2023-04-18T02:08:43.010Z,98.37
2023-04-18T02:09:42.999Z,98.37
2023-04-18T02:10:42.973Z,98.37
2023-04-18T02:11:42.946Z,98.06
2023-04-18T02:12:42.975Z,98.16
2023-04-18T02:13:42.940Z,98.27
2023-04-18T02:14:42.924Z,98.06
2023-04-18T02:15:42.892Z,97.96
2023-04-18T02:16:42.923Z,97.96
2023-04-18T02:17:42.895Z,98.27
2023-04-18T02:18:42.845Z,98.16
2023-04-18T02:19:42.857Z,97.96
2023-04-18T02:20:42.862Z,98.16
2023-04-18T02:21:43.011Z,98.16
2023-04-18T02:22:42.846Z,98.16
2023-04-18T02:23:43.565Z,98.06
2023-04-18T02:24:43.230Z,98.06
2023-04-18T02:25:42.816Z,98.06
2023-04-18T02:26:42.789Z,97.75
2023-04-18T02:27:42.784Z,97.85
2023-04-18T02:28:42.868Z,97.75
2023-04-18T02:29:42.828Z,97.96
2023-04-18T02:30:42.789Z,97.96
2023-04-18T02:31:42.779Z,97.96
2023-04-18T02:32:42.713Z,97.96
2023-04-18T02:33:42.709Z,97.64
2023-04-18T02:34:42.658Z,97.75
2023-04-18T02:35:42.655Z,97.85
2023-04-18T02:36:42.614Z,97.96
2023-04-18T02:37:42.676Z,97.54
2023-04-18T02:38:42.655Z,97.64
2023-04-18T02:39:42.621Z,97.96
2023-04-18T02:40:42.579Z,97.96
2023-04-18T02:41:42.623Z,97.64
2023-04-18T02:42:42.554Z,97.54
2023-04-18T02:43:42.559Z,97.44
2023-04-18T02:44:42.524Z,97.44
2023-04-18T02:45:42.579Z,97.33
2023-04-18T02:46:42.515Z,97.54
2023-04-18T02:47:53.644Z,97.50
2023-04-18T02:48:43.462Z,97.19
2023-04-18T02:49:42.489Z,97.08
2023-04-18T02:50:42.470Z,97.19
2023-04-18T02:51:42.458Z,97.19
2023-04-18T02:52:42.417Z,97.08
2023-04-18T02:53:42.443Z,97.19
2023-04-18T02:54:42.443Z,96.98
2023-04-18T02:55:42.413Z,97.08
2023-04-18T02:56:42.383Z,96.98
2023-04-18T02:57:42.361Z,97.08
2023-04-18T02:58:42.375Z,96.77
2023-04-18T02:59:42.358Z,96.88
2023-04-18T03:00:42.334Z,96.98
2023-04-18T03:01:42.376Z,97.08
2023-04-18T03:02:42.347Z,96.77
2023-04-18T03:03:42.289Z,96.47
2023-04-18T03:04:42.443Z,96.36
2023-04-18T03:05:42.276Z,96.47
2023-04-18T03:06:42.280Z,96.47
2023-04-18T03:07:42.237Z,96.26
2023-04-18T03:08:42.239Z,96.47
2023-04-18T03:09:42.244Z,96.67
2023-04-18T03:10:42.180Z,96.47
2023-04-18T03:11:42.192Z,96.05
2023-04-18T03:12:42.166Z,96.15
2023-04-18T03:13:42.208Z,96.15
2023-04-18T03:14:42.200Z,96.15
2023-04-18T03:15:42.153Z,95.64
2023-04-18T03:16:42.110Z,95.84
2023-04-18T03:17:42.196Z,95.74
2023-04-18T03:18:42.097Z,95.74
2023-04-18T03:19:42.934Z,95.64
2023-04-18T03:20:42.118Z,95.64
2023-04-18T03:21:42.074Z,95.43
2023-04-18T03:22:42.052Z,95.53
2023-04-18T03:23:42.066Z,95.64
2023-04-18T03:24:42.070Z,95.32
2023-04-18T03:25:42.002Z,95.22
2023-04-18T03:26:42.024Z,95.32
2023-04-18T03:27:42.029Z,95.32
2023-04-18T03:28:41.997Z,95.43
2023-04-18T03:29:42.005Z,95.43
2023-04-18T03:30:41.955Z,95.53
2023-04-18T03:31:42.047Z,95.32
2023-04-18T03:32:42.088Z,95.22
2023-04-18T03:33:41.921Z,95.32
2023-04-18T03:34:41.915Z,95.22
2023-04-18T03:35:41.905Z,95.02
2023-04-18T03:36:41.871Z,95.22
2023-04-18T03:37:41.868Z,95.43
2023-04-18T03:38:41.838Z,95.53
2023-04-18T03:39:41.891Z,95.22
2023-04-18T03:40:41.835Z,95.43
2023-04-18T03:41:41.820Z,95.22
2023-04-18T03:42:41.789Z,94.92
2023-04-18T03:43:41.800Z,95.12
2023-04-18T03:44:41.827Z,94.81
2023-04-18T03:45:41.800Z,95.02
2023-04-18T03:46:42.124Z,95.02
2023-04-18T03:47:41.861Z,95.18
2023-04-18T03:48:41.781Z,95.59
2023-04-18T03:49:41.740Z,95.07
2023-04-18T03:50:41.783Z,94.60
2023-04-18T03:51:41.730Z,94.50
2023-04-18T03:52:41.686Z,94.81
2023-04-18T03:53:41.708Z,94.81
2023-04-18T03:54:41.661Z,95.02
2023-04-18T03:55:41.743Z,95.02
2023-04-18T03:56:41.622Z,95.02
2023-04-18T03:57:41.657Z,94.92
2023-04-18T03:58:41.594Z,94.92
2023-04-18T03:59:41.611Z,95.02
2023-04-18T04:00:41.576Z,94.92
2023-04-18T04:01:41.616Z,95.22
2023-04-18T04:02:41.690Z,94.71
2023-04-18T04:03:41.813Z,94.81
2023-04-18T04:04:41.550Z,94.81
2023-04-18T04:05:41.540Z,95.02
2023-04-18T04:06:41.498Z,94.92
2023-04-18T04:07:41.508Z,94.92
2023-04-18T04:08:41.519Z,95.02
2023-04-18T04:09:41.512Z,95.02
2023-04-18T04:10:41.484Z,95.32
2023-04-18T04:11:41.474Z,95.32
2023-04-18T04:12:41.421Z,94.92
2023-04-18T04:13:41.445Z,95.02
2023-04-18T04:14:41.400Z,95.02
2023-04-18T04:15:41.413Z,95.22
2023-04-18T04:16:41.466Z,95.32
2023-04-18T04:17:41.435Z,95.32
2023-04-18T04:18:41.412Z,95.02
2023-04-18T04:19:41.413Z,94.96
2023-04-18T04:20:41.353Z,95.06
2023-04-18T04:21:41.368Z,95.12
2023-04-18T04:22:41.324Z,95.17
2023-04-18T04:23:41.305Z,95.17
2023-04-18T04:24:41.296Z,95.06
2023-04-18T04:25:41.282Z,94.85
2023-04-18T04:26:41.287Z,95.12
2023-04-18T04:27:41.274Z,95.02
2023-04-18T04:28:41.277Z,94.92
2023-04-18T04:29:41.351Z,94.92
2023-04-18T04:30:41.302Z,94.81
2023-04-18T04:31:41.293Z,94.60
2023-04-18T04:32:41.468Z,94.60
2023-04-18T04:33:41.204Z,94.92
2023-04-18T04:34:41.340Z,95.02
2023-04-18T04:35:41.169Z,94.81
2023-04-18T04:36:41.198Z,94.50
2023-04-18T04:37:41.246Z,94.40
2023-04-18T04:38:41.171Z,94.50
2023-04-18T04:39:41.138Z,94.29
2023-04-18T04:40:41.226Z,94.40
2023-04-18T04:41:41.090Z,94.19
2023-04-18T04:42:41.193Z,94.29
2023-04-18T04:43:41.134Z,94.40
2023-04-18T04:44:41.101Z,94.50
2023-04-18T04:45:41.056Z,94.40
2023-04-18T04:46:40.996Z,93.98
2023-04-18T04:47:41.084Z,93.78
2023-04-18T04:48:40.992Z,94.09
2023-04-18T04:49:41.007Z,93.88
2023-04-18T04:50:41.111Z,93.98
2023-04-18T04:51:41.045Z,94.19
2023-04-18T04:52:41.004Z,93.88
2023-04-18T04:53:40.981Z,93.68
2023-04-18T04:54:40.926Z,93.88
2023-04-18T04:55:40.969Z,94.09
2023-04-18T04:56:41.045Z,94.19
2023-04-18T04:57:40.944Z,94.29
2023-04-18T04:58:40.892Z,94.19
2023-04-18T04:59:40.886Z,94.19
2023-04-18T05:00:40.887Z,94.29
2023-04-18T05:01:40.920Z,94.29
2023-04-18T05:02:41.034Z,94.40
2023-04-18T05:03:40.975Z,94.50
2023-04-18T05:04:41.218Z,94.60
2023-04-18T05:05:47.793Z,94.71
2023-04-18T05:06:40.790Z,94.40
2023-04-18T05:07:40.977Z,94.50
2023-04-18T05:08:40.802Z,94.29
2023-04-18T05:09:40.811Z,94.29
2023-04-18T05:10:40.756Z,94.19
2023-04-18T05:11:40.701Z,93.98
2023-04-18T05:12:40.698Z,93.88
2023-04-18T05:13:40.812Z,93.88
2023-04-18T05:14:40.841Z,93.68
2023-04-18T05:15:40.686Z,94.19
2023-04-18T05:16:40.639Z,93.98
2023-04-18T05:17:40.724Z,93.78
2023-04-18T05:18:40.638Z,93.98
2023-04-18T05:19:40.605Z,94.46
2023-04-18T05:20:40.615Z,93.53
2023-04-18T05:21:40.620Z,93.49
2023-04-18T05:22:40.549Z,93.22
2023-04-18T05:23:40.553Z,93.12
2023-04-18T05:24:40.583Z,93.63
2023-04-18T05:25:40.533Z,93.28
2023-04-18T05:26:40.557Z,92.97
2023-04-18T05:27:40.496Z,92.91
2023-04-18T05:28:40.524Z,93.01
2023-04-18T05:29:40.477Z,92.80
2023-04-18T05:30:40.485Z,93.22
2023-04-18T05:31:40.464Z,93.43
2023-04-18T05:32:40.574Z,93.63
2023-04-18T05:33:40.426Z,93.94
2023-04-18T05:34:40.424Z,93.84
2023-04-18T05:35:40.424Z,93.84
2023-04-18T05:36:40.397Z,93.73
2023-04-18T05:37:40.424Z,93.53
2023-04-18T05:38:40.370Z,93.22
2023-04-18T05:39:40.371Z,93.01
2023-04-18T05:40:40.367Z,92.70
2023-04-18T05:41:40.373Z,93.01
2023-04-18T05:42:40.312Z,93.12
2023-04-18T05:43:41.783Z,93.12
2023-04-18T05:44:40.341Z,92.91
2023-04-18T05:45:40.359Z,92.66
2023-04-18T05:46:40.302Z,92.46
2023-04-18T05:47:40.287Z,92.35
2023-04-18T05:48:40.246Z,92.14
2023-04-18T05:49:40.241Z,91.94
2023-04-18T05:50:40.252Z,92.25
2023-04-18T05:51:40.222Z,92.55
2023-04-18T05:52:40.217Z,92.46
2023-04-18T05:53:40.206Z,92.86
2023-04-18T05:54:40.176Z,92.86
2023-04-18T05:55:40.212Z,92.35
2023-04-18T05:56:40.138Z,91.94
2023-04-18T05:57:40.155Z,92.25
2023-04-18T05:58:40.137Z,92.46
2023-04-18T05:59:40.118Z,92.35
2023-04-18T06:00:40.140Z,92.40
2023-04-18T06:01:40.113Z,92.60
2023-04-18T06:02:40.335Z,91.98
2023-04-18T06:03:40.264Z,92.40
2023-04-18T06:04:42.026Z,92.50
2023-04-18T06:05:40.140Z,92.50
2023-04-18T06:06:40.002Z,92.50
2023-04-18T06:07:40.008Z,92.40
2023-04-18T06:08:40.003Z,92.35
2023-04-18T06:09:40.012Z,92.35
2023-04-18T06:10:39.957Z,92.25
2023-04-18T06:11:40.000Z,92.14
2023-04-18T06:12:39.998Z,92.04
2023-04-18T06:13:39.936Z,91.94
2023-04-18T06:14:39.919Z,91.89
2023-04-18T06:15:39.929Z,91.38
2023-04-18T06:16:40.020Z,91.38
2023-04-18T06:17:39.924Z,91.17
2023-04-18T06:18:39.904Z,91.17
2023-04-18T06:19:39.846Z,91.17
2023-04-18T06:20:39.849Z,91.38
2023-04-18T06:21:39.854Z,91.03
2023-04-18T06:22:39.811Z,90.72
2023-04-18T06:23:39.853Z,90.31
2023-04-18T06:24:39.785Z,90.10
2023-04-18T06:25:39.789Z,90.31
2023-04-18T06:26:39.734Z,90.06
2023-04-18T06:27:39.756Z,89.75
2023-04-18T06:28:39.765Z,89.75
2023-04-18T06:29:39.746Z,89.03
2023-04-18T06:30:39.773Z,89.44
2023-04-18T06:31:39.788Z,89.75
2023-04-18T06:32:39.775Z,89.65
2023-04-18T06:33:39.657Z,89.40
2023-04-18T06:34:39.692Z,89.09
2023-04-18T06:35:39.641Z,88.99
2023-04-18T06:36:41.099Z,88.82
2023-04-18T06:37:39.643Z,89.13
2023-04-18T06:38:39.658Z,89.09
2023-04-18T06:39:39.612Z,88.99
2023-04-18T06:40:39.610Z,88.78
2023-04-18T06:41:39.581Z,88.06
2023-04-18T06:42:39.570Z,88.17
2023-04-18T06:43:44.314Z,88.17
2023-04-18T06:44:40.576Z,88.37
2023-04-18T06:45:39.555Z,88.68
2023-04-18T06:46:39.494Z,87.96
2023-04-18T06:47:39.537Z,88.57
2023-04-18T06:48:39.483Z,88.37
2023-04-18T06:49:39.464Z,88.47
2023-04-18T06:50:39.469Z,88.78
2023-04-18T06:51:39.439Z,88.26
2023-04-18T06:52:39.402Z,87.85
2023-04-18T06:53:39.399Z,88.47
2023-04-18T06:54:39.417Z,88.57
2023-04-18T06:55:40.460Z,88.26
2023-04-18T06:56:39.429Z,88.47
2023-04-18T06:57:39.452Z,88.53
2023-04-18T06:58:39.327Z,88.12
2023-04-18T06:59:39.341Z,87.92
2023-04-18T07:00:39.394Z,88.12
2023-04-18T07:01:39.455Z,87.60
2023-04-18T07:02:39.431Z,87.92
2023-04-18T07:03:39.406Z,87.71
2023-04-18T07:04:39.395Z,87.51
2023-04-18T07:05:39.253Z,87.57
2023-04-18T07:06:39.532Z,87.67
2023-04-18T07:07:39.215Z,87.36
2023-04-18T07:08:39.205Z,86.85
2023-04-18T07:09:39.173Z,87.05
2023-04-18T07:10:39.236Z,86.64
2023-04-18T07:11:39.183Z,87.05
2023-04-18T07:12:39.217Z,87.22
2023-04-18T07:13:39.137Z,86.50
2023-04-18T07:14:39.108Z,86.70
2023-04-18T07:15:39.101Z,86.29
2023-04-18T07:16:39.196Z,86.08
2023-04-18T07:17:39.120Z,85.98
2023-04-18T07:18:39.102Z,86.29
2023-04-18T07:19:39.096Z,86.40
2023-04-18T07:20:39.080Z,86.29
2023-04-18T07:21:39.022Z,86.19
2023-04-18T07:22:39.038Z,85.94
2023-04-18T07:23:39.042Z,85.74
2023-04-18T07:24:39.023Z,85.60
2023-04-18T07:25:39.019Z,85.60
2023-04-18T07:26:39.020Z,85.18
2023-04-18T07:27:39.046Z,85.53
2023-04-18T07:28:38.935Z,85.12
2023-04-18T07:29:38.914Z,85.43
2023-04-18T07:30:38.937Z,85.53
2023-04-18T07:31:38.899Z,85.63
2023-04-18T07:32:39.000Z,85.43
2023-04-18T07:33:39.246Z,85.74
2023-04-18T07:34:39.586Z,85.63
2023-04-18T07:35:38.854Z,86.05
2023-04-18T07:36:38.826Z,86.25
2023-04-18T07:37:38.854Z,85.22
2023-04-18T07:38:38.897Z,85.84
2023-04-18T07:39:38.857Z,85.90
2023-04-18T07:40:39.501Z,85.18
2023-04-18T07:41:39.760Z,84.98
2023-04-18T07:42:38.879Z,85.39
2023-04-18T07:43:38.765Z,85.18
2023-04-18T07:44:38.849Z,85.08
2023-04-18T07:45:39.336Z,85.18
2023-04-18T07:46:38.887Z,84.67
2023-04-18T07:47:38.700Z,84.74
2023-04-18T07:48:39.300Z,84.12
2023-04-18T07:49:38.699Z,84.84
2023-04-18T07:50:38.668Z,84.74
2023-04-18T07:51:38.637Z,84.84
2023-04-18T07:52:39.513Z,84.94
2023-04-18T07:53:39.063Z,84.49
2023-04-18T07:54:38.637Z,84.28
2023-04-18T07:55:38.636Z,84.18
2023-04-18T07:56:38.647Z,83.77
2023-04-18T07:57:38.583Z,83.77
2023-04-18T07:58:38.567Z,83.94
2023-04-18T07:59:38.526Z,83.94
2023-04-18T08:00:38.541Z,83.53
2023-04-18T08:01:38.520Z,83.32
2023-04-18T08:02:38.638Z,83.12
2023-04-18T08:03:38.605Z,83.22
2023-04-18T08:04:38.654Z,83.22
2023-04-18T08:05:38.477Z,83.53
2023-04-18T08:06:38.454Z,83.63
2023-04-18T08:07:39.044Z,83.83
2023-04-18T08:08:38.436Z,83.53
2023-04-18T08:09:38.388Z,83.53
2023-04-18T08:10:38.383Z,83.80
2023-04-18T08:11:38.421Z,83.18
2023-04-18T08:12:38.368Z,83.39
2023-04-18T08:13:38.394Z,82.87
2023-04-18T08:14:38.384Z,82.77
2023-04-18T08:15:38.324Z,83.01
2023-04-18T08:16:38.387Z,83.42
2023-04-18T08:17:38.367Z,83.73
2023-04-18T08:18:38.299Z,83.53
2023-04-18T08:19:38.275Z,83.32
2023-04-18T08:20:38.346Z,83.90
2023-04-18T08:21:38.271Z,83.59
2023-04-18T08:22:49.341Z,82.87
2023-04-18T08:23:39.202Z,83.28
2023-04-18T08:24:38.240Z,83.28
2023-04-18T08:25:38.240Z,83.39
2023-04-18T08:26:38.198Z,83.49
2023-04-18T08:27:38.176Z,83.49
2023-04-18T08:28:38.204Z,83.18
2023-04-18T08:29:38.183Z,83.07
2023-04-18T08:30:38.161Z,83.18
2023-04-18T08:31:38.170Z,83.07
2023-04-18T08:32:38.166Z,83.39
2023-04-18T08:33:38.091Z,83.59
2023-04-18T08:34:38.102Z,83.69
2023-04-18T08:35:38.073Z,83.59
2023-04-18T08:36:38.232Z,83.59
2023-04-18T08:37:38.036Z,83.90
2023-04-18T08:38:38.119Z,84.00
2023-04-18T08:39:38.021Z,83.69
2023-04-18T08:40:38.044Z,84.31
2023-04-18T08:41:37.976Z,84.52
2023-04-18T08:42:37.991Z,84.20
2023-04-18T08:43:37.956Z,84.10
2023-04-18T08:44:37.978Z,83.80
2023-04-18T08:45:38.021Z,84.31
2023-04-18T08:46:38.959Z,83.90
2023-04-18T08:47:38.297Z,83.69
2023-04-18T08:48:37.935Z,83.80
2023-04-18T08:49:37.891Z,83.59
2023-04-18T08:50:37.873Z,83.69
2023-04-18T08:51:37.851Z,84.00
2023-04-18T08:52:37.848Z,84.31
2023-04-18T08:53:37.852Z,84.10
2023-04-18T08:54:38.010Z,83.90
2023-04-18T08:55:37.855Z,84.10
2023-04-18T08:56:37.921Z,83.90
2023-04-18T08:57:37.868Z,84.00
2023-04-18T08:58:37.786Z,84.31
2023-04-18T08:59:37.770Z,84.17
2023-04-18T09:00:37.758Z,83.96
2023-04-18T09:01:37.749Z,83.96
2023-04-18T09:02:37.914Z,83.65
2023-04-18T09:03:37.920Z,83.20
2023-04-18T09:04:37.803Z,83.00
2023-04-18T09:05:37.673Z,82.69
2023-04-18T09:06:37.679Z,82.90
2023-04-18T09:07:37.678Z,82.93
2023-04-18T09:08:37.658Z,83.31
2023-04-18T09:09:37.619Z,83.00
2023-04-18T09:10:37.642Z,82.90
2023-04-18T09:11:37.606Z,83.00
2023-04-18T09:12:37.647Z,83.10
2023-04-18T09:13:37.636Z,82.79
2023-04-18T09:14:37.576Z,83.31
2023-04-18T09:15:37.542Z,83.20
2023-04-18T09:16:37.582Z,82.76
2023-04-18T09:17:37.584Z,83.17
2023-04-18T09:18:37.562Z,82.62
2023-04-18T09:19:37.476Z,81.59
2023-04-18T09:20:37.504Z,81.18
2023-04-18T09:21:37.479Z,81.08
2023-04-18T09:22:39.555Z,80.77
2023-04-18T09:23:37.424Z,81.38
2023-04-18T09:24:37.428Z,81.08
2023-04-18T09:25:38.404Z,80.88
2023-04-18T09:26:37.413Z,80.98
2023-04-18T09:27:37.438Z,80.83
2023-04-18T09:28:37.361Z,80.46
2023-04-18T09:29:37.361Z,80.94
2023-04-18T09:30:37.402Z,80.63
2023-04-18T09:31:37.374Z,80.53
2023-04-18T09:32:37.378Z,80.22
2023-04-18T09:33:37.315Z,80.33
2023-04-18T09:34:37.306Z,80.43
2023-04-18T09:35:37.289Z,80.43
2023-04-18T09:36:37.485Z,80.02
2023-04-18T09:37:37.287Z,79.88
2023-04-18T09:38:37.310Z,79.68
2023-04-18T09:39:37.232Z,79.33
2023-04-18T09:40:37.215Z,79.02
2023-04-18T09:41:38.173Z,78.68
2023-04-18T09:42:37.192Z,78.38
2023-04-18T09:43:37.239Z,77.45
2023-04-18T09:44:37.171Z,78.07
2023-04-18T09:45:37.167Z,78.17
2023-04-18T09:46:37.300Z,78.27
2023-04-18T09:47:37.789Z,77.76
2023-04-18T09:48:37.149Z,77.86
2023-04-18T09:49:37.140Z,78.38
2023-04-18T09:50:37.116Z,78.72
2023-04-18T09:51:37.215Z,78.92
2023-04-18T09:52:37.148Z,79.13
2023-04-18T09:53:37.083Z,78.88
2023-04-18T09:54:37.186Z,78.68
2023-04-18T09:55:37.084Z,78.23
2023-04-18T09:56:37.075Z,77.42
2023-04-18T09:57:37.081Z,77.69
2023-04-18T09:58:37.029Z,77.08
2023-04-18T09:59:36.997Z,76.46
2023-04-18T10:00:36.994Z,76.63
2023-04-18T10:01:37.030Z,76.73
2023-04-18T10:02:36.962Z,77.04
2023-04-18T10:03:36.958Z,76.93
2023-04-18T10:04:37.098Z,76.56
2023-04-18T10:05:36.945Z,77.01
2023-04-18T10:06:37.367Z,77.42
2023-04-18T10:07:36.877Z,77.93
2023-04-18T10:08:36.877Z,77.42
2023-04-18T10:09:36.846Z,77.42
2023-04-18T10:10:38.782Z,77.11
2023-04-18T10:11:37.460Z,77.76
2023-04-18T10:12:36.829Z,78.27
2023-04-18T10:13:36.935Z,78.99
2023-04-18T10:14:36.768Z,79.29
2023-04-18T10:15:36.806Z,78.68
2023-04-18T10:16:36.837Z,79.19
2023-04-18T10:17:37.652Z,78.68
2023-04-18T10:18:36.781Z,78.99
2023-04-18T10:19:36.696Z,78.99
2023-04-18T10:20:36.721Z,78.64
2023-04-18T10:21:36.677Z,78.54
2023-04-18T10:22:37.598Z,77.83
2023-04-18T10:23:36.668Z,77.79
2023-04-18T10:24:36.652Z,77.69
2023-04-18T10:25:36.644Z,77.08
2023-04-18T10:26:36.624Z,76.77
2023-04-18T10:27:36.592Z,76.56
2023-04-18T10:28:36.597Z,77.08
2023-04-18T10:29:36.619Z,76.73
2023-04-18T10:30:36.555Z,76.67
2023-04-18T10:31:36.602Z,76.84
2023-04-18T10:32:36.572Z,76.43
2023-04-18T10:33:41.982Z,76.43
2023-04-18T10:34:37.521Z,76.63
2023-04-18T10:35:36.529Z,76.56
2023-04-18T10:36:36.563Z,77.08
2023-04-18T10:37:36.461Z,77.38
2023-04-18T10:38:36.470Z,77.18
2023-04-18T10:39:36.451Z,77.04
2023-04-18T10:40:36.438Z,77.25
2023-04-18T10:41:36.426Z,77.11
2023-04-18T10:42:36.422Z,75.85
2023-04-18T10:43:36.388Z,75.54
2023-04-18T10:44:36.425Z,75.34
2023-04-18T10:45:36.491Z,75.03
2023-04-18T10:46:36.470Z,74.79
2023-04-18T10:47:36.445Z,74.58
2023-04-18T10:48:38.573Z,74.79
2023-04-18T10:49:37.045Z,74.90
2023-04-18T10:50:36.324Z,74.69
2023-04-18T10:51:36.334Z,74.79
2023-04-18T10:52:36.311Z,74.62
2023-04-18T10:53:36.265Z,75.03
2023-04-18T10:54:36.261Z,74.93
2023-04-18T10:55:36.253Z,75.13
2023-04-18T10:56:36.276Z,75.27
2023-04-18T10:57:36.212Z,75.64
2023-04-18T10:58:36.183Z,75.34
2023-04-18T10:59:36.205Z,75.44
2023-04-18T11:00:36.255Z,75.44
2023-04-18T11:01:36.212Z,75.34
2023-04-18T11:02:36.280Z,75.74
2023-04-18T11:03:36.305Z,76.09
2023-04-18T11:04:36.199Z,76.05
2023-04-18T11:05:43.133Z,76.09
2023-04-18T11:06:36.088Z,76.39
2023-04-18T11:07:36.086Z,76.25
2023-04-18T11:08:36.046Z,75.95
2023-04-18T11:09:36.060Z,76.35
2023-04-18T11:10:36.052Z,75.64
2023-04-18T11:11:36.041Z,75.20
2023-04-18T11:12:36.242Z,75.23
2023-04-18T11:13:36.020Z,75.44
2023-04-18T11:14:35.975Z,76.09
2023-04-18T11:15:35.976Z,76.70
2023-04-18T11:16:36.000Z,76.15
2023-04-18T11:17:36.088Z,76.05
2023-04-18T11:18:35.927Z,75.30
2023-04-18T11:19:35.910Z,75.30
2023-04-18T11:20:35.915Z,75.06
2023-04-18T11:21:35.911Z,74.65
2023-04-18T11:22:35.885Z,74.38
2023-04-18T11:23:35.863Z,74.99
2023-04-18T11:24:35.853Z,74.90
2023-04-18T11:25:35.841Z,74.79
2023-04-18T11:26:36.838Z,75.20
2023-04-18T11:27:35.816Z,74.90
2023-04-18T11:28:35.791Z,74.55
2023-04-18T11:29:35.808Z,74.25
2023-04-18T11:30:35.778Z,73.74
2023-04-18T11:31:35.855Z,74.35
2023-04-18T11:32:35.832Z,74.69
2023-04-18T11:33:35.740Z,75.20
2023-04-18T11:34:35.748Z,74.99
2023-04-18T11:35:35.718Z,75.16
2023-04-18T11:36:35.686Z,74.76
2023-04-18T11:37:35.676Z,74.76
2023-04-18T11:38:35.667Z,74.25
2023-04-18T11:39:35.675Z,74.76
2023-04-18T11:40:35.639Z,74.28
2023-04-18T11:41:35.648Z,74.99
2023-04-18T11:42:35.644Z,74.65
2023-04-18T11:43:35.615Z,74.90
2023-04-18T11:44:36.276Z,75.16
2023-04-18T11:45:35.764Z,74.76
2023-04-18T11:46:35.811Z,75.40
2023-04-18T11:47:35.591Z,75.06
2023-04-18T11:48:35.530Z,74.65
2023-04-18T11:49:35.525Z,74.25
2023-04-18T11:50:35.496Z,74.76
2023-04-18T11:51:35.528Z,75.16
2023-04-18T11:52:35.478Z,74.62
2023-04-18T11:53:35.503Z,74.01
2023-04-18T11:54:35.519Z,73.91
2023-04-18T11:55:35.445Z,74.01
2023-04-18T11:56:36.736Z,73.50
2023-04-18T11:57:35.414Z,73.71
2023-04-18T11:58:35.436Z,73.60
2023-04-18T11:59:35.392Z,73.40
2023-04-18T12:00:35.431Z,73.80
2023-04-18T12:01:35.368Z,73.71
2023-04-18T12:02:35.516Z,74.01
2023-04-18T12:03:35.505Z,73.47
2023-04-18T12:04:35.520Z,73.47
2023-04-18T12:05:35.691Z,72.65
2023-04-18T12:06:35.287Z,72.82
2023-04-18T12:07:35.291Z,72.92
2023-04-18T12:08:35.275Z,73.19
2023-04-18T12:09:35.263Z,72.17
2023-04-18T12:10:35.296Z,71.67
2023-04-18T12:11:35.259Z,71.80
2023-04-18T12:12:35.216Z,72.65
2023-04-18T12:13:35.214Z,73.06
2023-04-18T12:14:35.192Z,72.72
2023-04-18T12:15:35.241Z,72.31
2023-04-18T12:16:35.194Z,72.11
2023-04-18T12:17:35.206Z,71.97
2023-04-18T12:18:35.181Z,72.01
2023-04-18T12:19:35.135Z,72.21
2023-04-18T12:20:35.118Z,72.28
2023-04-18T12:21:35.192Z,71.97
2023-04-18T12:22:35.083Z,72.48
2023-04-18T12:23:35.083Z,72.62
2023-04-18T12:24:35.120Z,72.69
2023-04-18T12:25:35.113Z,72.72
2023-04-18T12:26:35.076Z,72.89
2023-04-18T12:27:35.041Z,72.82
2023-04-18T12:28:35.049Z,73.23
2023-04-18T12:29:35.019Z,73.54
2023-04-18T12:30:37.364Z,73.94
2023-04-18T12:31:35.030Z,73.63
2023-04-18T12:32:34.976Z,73.74
2023-04-18T12:33:34.953Z,74.15
2023-04-18T12:34:34.924Z,73.94
2023-04-18T12:35:34.928Z,73.94
2023-04-18T12:36:34.918Z,73.54
2023-04-18T12:37:34.926Z,73.84
2023-04-18T12:38:34.909Z,73.43
2023-04-18T12:39:34.888Z,73.94
2023-04-18T12:40:34.876Z,73.94
2023-04-18T12:41:34.875Z,74.04
2023-04-18T12:42:34.831Z,74.35
2023-04-18T12:43:34.865Z,74.35
2023-04-18T12:44:34.809Z,74.35
2023-04-18T12:45:34.800Z,74.45
2023-04-18T12:46:34.832Z,74.15
2023-04-18T12:47:34.821Z,74.24
2023-04-18T12:48:34.748Z,74.55
2023-04-18T12:49:34.750Z,74.55
2023-04-18T12:50:34.737Z,74.35
2023-04-18T12:51:34.736Z,74.65
2023-04-18T12:52:34.692Z,74.96